Time;durP1;ratioP1;P1;durP2;ratioP2;P2;SDS_P1;SDS_P2;PMS_P1;PMS_P2;Temp;Humidity;BMP_temperature;BMP_pressure;BME280_temperature;BME280_humidity;BME280_pressure;Samples;Min_cycle;Max_cycle;Signal;HPM_P1;HPM_P2
2023/07/08 00:00:24;;;;;;;4.40;2.40;;;18.50;1.00;;;;;;5073809;28;20214;-90
2023/07/08 00:02:50;;;;;;;4.47;2.17;;;18.50;1.00;;;;;;5073795;28;20182;-90
2023/07/08 00:05:18;;;;;;;2.90;2.17;;;18.40;1.00;;;;;;5073548;28;20236;-90
2023/07/08 00:07:44;;;;;;;6.67;2.60;;;18.70;1.00;;;;;;5073301;28;20190;-91
2023/07/08 00:10:22;;;;;;;4.97;2.20;;;18.50;1.00;;;;;;5073368;28;20232;-90
2023/07/08 00:12:50;;;;;;;4.67;2.30;;;18.50;1.00;;;;;;5073377;28;20253;-91
2023/07/08 00:15:17;;;;;;;6.10;2.30;;;18.50;1.00;;;;;;5074069;28;20194;-91
2023/07/08 00:17:43;;;;;;;4.00;2.07;;;18.70;1.00;;;;;;5073516;28;20197;-91
2023/07/08 00:20:41;;;;;;;4.37;2.60;;;18.70;1.00;;;;;;5073877;28;20292;-90
2023/07/08 00:23:09;;;;;;;2.63;1.97;;;18.50;1.00;;;;;;5074042;28;20171;-90
2023/07/08 00:25:34;;;;;;;4.67;2.27;;;18.50;1.00;;;;;;5073691;28;20175;-91
2023/07/08 00:28:00;;;;;;;3.47;2.30;;;18.70;1.00;;;;;;5073551;28;20247;-90
2023/07/08 00:30:28;;;;;;;5.20;2.60;;;18.70;1.00;;;;;;5055754;28;20218;-90
2023/07/08 00:32:55;;;;;;;3.97;2.10;;;18.60;1.00;;;;;;5073729;28;20257;-91
2023/07/08 00:35:35;;;;;;;4.67;2.20;;;18.70;1.00;;;;;;5073640;28;20163;-90
2023/07/08 00:38:20;;;;;;;4.40;2.07;;;18.60;1.00;;;;;;5073760;28;20613;-91
2023/07/08 00:41:10;;;;;;;3.67;1.70;;;18.70;1.00;;;;;;5055525;28;20572;-90
2023/07/08 00:43:46;;;;;;;4.57;2.37;;;18.70;1.00;;;;;;5055745;28;20205;-90
2023/07/08 00:46:17;;;;;;;3.77;2.00;;;18.70;1.00;;;;;;5073471;28;20197;-90
2023/07/08 00:48:45;;;;;;;4.20;2.17;;;18.70;1.00;;;;;;5055748;28;20630;-91
2023/07/08 00:51:12;;;;;;;5.03;2.70;;;18.90;1.00;;;;;;5055244;28;20258;-90
2023/07/08 00:53:38;;;;;;;2.83;2.27;;;18.80;1.00;;;;;;5055219;28;20175;-90
2023/07/08 00:56:16;;;;;;;4.80;2.37;;;18.80;1.00;;;;;;5055513;28;20182;-91
2023/07/08 00:59:01;;;;;;;3.93;1.67;;;18.90;1.00;;;;;;5055488;28;20159;-91
2023/07/08 01:01:29;;;;;;;3.97;2.17;;;18.90;1.00;;;;;;5055551;28;20160;-91
2023/07/08 01:04:01;;;;;;;3.67;2.43;;;18.90;99.90;;;;;;5055689;28;20638;-91
2023/07/08 01:06:31;;;;;;;3.83;2.07;;;18.90;99.90;;;;;;5055415;28;20240;-91
2023/07/08 01:08:59;;;;;;;2.70;2.00;;;19.10;99.90;;;;;;5055919;28;20195;-91
2023/07/08 01:11:25;;;;;;;3.53;2.00;;;19.10;99.90;;;;;;5055885;28;20178;-91
2023/07/08 01:13:51;;;;;;;5.37;2.47;;;19.00;99.90;;;;;;5073125;28;20245;-90
2023/07/08 01:16:17;;;;;;;5.77;2.47;;;19.00;99.90;;;;;;5073070;28;20163;-91
2023/07/08 01:18:43;;;;;;;5.47;2.33;;;19.00;99.90;;;;;;5055025;28;20194;-90
2023/07/08 01:21:33;;;;;;;5.43;2.30;;;19.10;99.90;;;;;;5073222;28;20226;-90
2023/07/08 01:24:00;;;;;;;2.90;2.00;;;18.90;99.90;;;;;;5055320;28;20167;-91
2023/07/08 01:26:28;;;;;;;3.03;2.20;;;19.00;99.90;;;;;;5055122;28;20195;-91
2023/07/08 01:28:55;;;;;;;3.13;2.47;;;18.80;99.90;;;;;;5055172;28;20252;-90
2023/07/08 01:31:22;;;;;;;4.60;2.10;;;18.90;99.90;;;;;;5055003;28;20175;-91
2023/07/08 01:33:48;;;;;;;3.10;2.20;;;19.00;99.90;;;;;;5072846;28;20206;-91
2023/07/08 01:36:14;;;;;;;4.90;2.23;;;18.90;1.00;;;;;;5055058;28;20182;-91
2023/07/08 01:38:40;;;;;;;4.30;2.10;;;19.00;1.00;;;;;;5055184;28;20175;-90
2023/07/08 01:41:10;;;;;;;4.90;3.00;;;18.80;1.00;;;;;;5054941;28;20175;-91
2023/07/08 01:43:36;;;;;;;3.70;2.30;;;18.90;1.00;;;;;;5072841;28;20167;-91
2023/07/08 01:46:02;;;;;;;4.80;2.50;;;18.80;1.00;;;;;;5055033;28;20193;-91
2023/07/08 01:48:30;;;;;;;3.20;2.30;;;18.90;1.00;;;;;;5055052;28;20175;-91
2023/07/08 01:51:03;;;;;;;2.53;1.97;;;18.90;1.00;;;;;;5054736;28;20194;-91
2023/07/08 01:53:37;;;;;;;2.33;1.80;;;18.80;1.00;;;;;;5054973;28;20220;-91
2023/07/08 01:56:05;;;;;;;2.43;1.77;;;18.90;1.00;;;;;;5072820;28;20167;-91
2023/07/08 01:58:31;;;;;;;3.20;2.37;;;18.80;1.00;;;;;;5054911;28;20171;-91
2023/07/08 02:00:56;;;;;;;6.13;2.60;;;18.80;1.00;;;;;;5073107;28;20554;-90
2023/07/08 02:03:22;;;;;;;3.53;2.40;;;18.80;1.00;;;;;;5056359;28;20720;-90
2023/07/08 02:05:48;;;;;;;4.67;2.50;;;18.80;1.00;;;;;;5058366;28;20238;-91
2023/07/08 02:08:14;;;;;;;5.23;2.80;;;18.80;1.00;;;;;;5058520;28;20682;-91
2023/07/08 02:10:41;;;;;;;3.23;2.40;;;18.80;1.00;;;;;;5058447;28;20195;-90
2023/07/08 02:13:06;;;;;;;3.13;2.10;;;18.80;1.00;;;;;;5076340;28;20237;-91
2023/07/08 02:15:32;;;;;;;2.70;2.10;;;18.80;1.00;;;;;;5058208;28;20262;-91
2023/07/08 02:17:58;;;;;;;3.57;2.60;;;19.00;1.00;;;;;;5075962;28;20198;-91
2023/07/08 02:20:23;;;;;;;3.10;2.20;;;19.00;1.00;;;;;;5058034;28;20195;-90
2023/07/08 02:22:49;;;;;;;4.67;2.50;;;18.60;1.00;;;;;;5058093;28;20255;-91
2023/07/08 02:25:15;;;;;;;3.83;2.40;;;18.70;1.00;;;;;;5058217;28;20175;-91
2023/07/08 02:27:42;;;;;;;5.87;2.70;;;18.70;1.00;;;;;;5057978;28;20197;-91
2023/07/08 02:30:08;;;;;;;3.43;2.57;;;18.50;1.00;;;;;;5057882;28;20191;-91
2023/07/08 02:32:35;;;;;;;4.57;2.80;;;18.60;1.00;;;;;;5057989;28;20179;-91
2023/07/08 02:35:02;;;;;;;2.80;2.20;;;18.60;1.00;;;;;;5058055;28;20589;-91
2023/07/08 02:37:29;;;;;;;3.03;2.20;;;18.50;1.00;;;;;;5057892;28;20171;-90
2023/07/08 02:39:55;;;;;;;4.77;2.50;;;18.50;1.00;;;;;;5075575;28;20611;-91
2023/07/08 02:42:21;;;;;;;3.70;2.87;;;18.50;1.00;;;;;;5075847;28;20174;-90
2023/07/08 02:44:46;;;;;;;3.80;2.20;;;18.60;1.00;;;;;;5075601;28;20171;-91
2023/07/08 02:47:12;;;;;;;6.10;2.50;;;18.40;1.00;;;;;;5075727;28;20198;-91
2023/07/08 02:49:40;;;;;;;3.50;2.63;;;18.60;1.00;;;;;;5057702;28;20194;-91
2023/07/08 02:52:06;;;;;;;3.43;2.57;;;18.40;1.00;;;;;;5057780;28;20187;-91
2023/07/08 02:54:32;;;;;;;5.03;2.50;;;18.40;1.00;;;;;;5057388;28;20269;-91
2023/07/08 02:56:57;;;;;;;3.67;2.40;;;18.40;1.00;;;;;;5075661;28;20171;-91
2023/07/08 02:59:23;;;;;;;4.33;2.60;;;18.40;1.00;;;;;;5057445;28;20234;-91
2023/07/08 03:01:49;;;;;;;4.10;2.60;;;18.40;1.00;;;;;;5057309;28;20179;-91
2023/07/08 03:04:15;;;;;;;6.83;3.03;;;18.20;1.00;;;;;;5075300;28;20174;-90
2023/07/08 03:06:42;;;;;;;4.07;3.17;;;18.40;1.00;;;;;;5057323;28;20691;-91
2023/07/08 03:09:09;;;;;;;4.73;2.63;;;18.40;1.00;;;;;;5074995;28;20197;-90
2023/07/08 03:11:36;;;;;;;3.77;2.67;;;18.40;1.00;;;;;;5057297;28;20329;-91
2023/07/08 03:14:02;;;;;;;4.40;2.83;;;18.30;1.00;;;;;;5074984;28;20206;-91
2023/07/08 03:16:27;;;;;;;2.77;2.33;;;18.40;1.00;;;;;;5074769;28;20206;-91
2023/07/08 03:18:53;;;;;;;4.30;2.40;;;18.40;1.00;;;;;;5057179;28;20191;-91
2023/07/08 03:21:19;;;;;;;4.87;2.57;;;18.40;1.00;;;;;;5057132;28;20599;-91
2023/07/08 03:23:45;;;;;;;2.97;2.47;;;18.40;1.00;;;;;;5074882;28;20599;-91
2023/07/08 03:26:17;;;;;;;7.57;2.67;;;18.30;1.00;;;;;;5057126;28;20256;-91
2023/07/08 03:28:42;;;;;;;3.93;2.67;;;18.40;1.00;;;;;;5056983;28;20182;-91
2023/07/08 03:31:09;;;;;;;3.83;2.60;;;18.40;1.00;;;;;;5075003;28;20546;-90
2023/07/08 03:33:35;;;;;;;2.77;2.57;;;18.30;1.00;;;;;;5074977;28;20171;-91
2023/07/08 03:36:01;;;;;;;4.03;2.70;;;18.30;1.00;;;;;;5056937;28;20182;-91
2023/07/08 03:38:27;;;;;;;4.70;2.77;;;18.30;1.00;;;;;;5074864;28;20266;-91
2023/07/08 03:40:53;;;;;;;5.77;2.70;;;18.40;1.00;;;;;;5056847;28;20289;-90
2023/07/08 03:43:18;;;;;;;6.63;2.47;;;18.30;1.00;;;;;;5056906;28;20178;-91
2023/07/08 03:45:45;;;;;;;3.03;2.30;;;18.40;1.00;;;;;;5056663;28;20212;-90
2023/07/08 03:48:11;;;;;;;3.33;2.30;;;18.40;1.00;;;;;;5056666;28;20203;-90
2023/07/08 03:50:37;;;;;;;5.87;2.83;;;18.50;1.00;;;;;;5074499;28;20190;-90
2023/07/08 03:53:03;;;;;;;4.33;2.60;;;18.40;1.00;;;;;;5056522;28;20178;-91
2023/07/08 03:55:28;;;;;;;4.30;2.50;;;18.30;1.00;;;;;;5056563;28;20175;-90
2023/07/08 03:57:54;;;;;;;5.43;2.60;;;18.30;1.00;;;;;;5056636;28;20664;-91
2023/07/08 04:00:20;;;;;;;4.93;3.00;;;18.30;27.90;;;;;;5056385;28;20276;-91
2023/07/08 04:02:46;;;;;;;3.30;2.80;;;18.30;25.20;;;;;;5056385;28;20181;-91
2023/07/08 04:05:20;;;;;;;6.10;2.63;;;18.20;34.40;;;;;;5056342;28;20210;-90
2023/07/08 04:07:46;;;;;;;2.87;2.57;;;18.30;36.00;;;;;;5056256;28;20198;-91
2023/07/08 04:10:13;;;;;;;3.63;2.70;;;18.20;62.30;;;;;;5056196;28;20262;-90
2023/07/08 04:12:39;;;;;;;3.83;2.87;;;18.40;92.60;;;;;;5074167;28;20175;-91
2023/07/08 04:15:07;;;;;;;7.20;2.83;;;18.20;99.40;;;;;;5056213;28;20206;-91
2023/07/08 04:17:34;;;;;;;3.20;2.80;;;18.20;96.30;;;;;;5073817;28;20186;-91
2023/07/08 04:20:06;;;;;;;4.10;2.60;;;18.70;99.90;;;;;;5056034;28;20627;-90
2023/07/08 04:22:31;;;;;;;4.83;2.97;;;18.40;99.90;;;;;;5056118;28;20223;-90
2023/07/08 04:24:57;;;;;;;5.47;3.03;;;18.20;99.90;;;;;;5056119;28;20190;-90
2023/07/08 04:27:22;;;;;;;5.30;3.00;;;18.20;99.90;;;;;;5056129;28;20233;-91
2023/07/08 04:29:48;;;;;;;5.17;2.80;;;18.20;99.90;;;;;;5074065;28;20182;-90
2023/07/08 04:32:14;;;;;;;4.87;2.40;;;18.10;99.90;;;;;;5073807;28;20163;-90
2023/07/08 04:34:39;;;;;;;3.83;2.80;;;18.20;99.90;;;;;;5073892;28;20202;-91
2023/07/08 04:37:05;;;;;;;3.97;2.90;;;18.40;99.90;;;;;;5073740;28;20170;-91
2023/07/08 04:39:31;;;;;;;4.37;3.07;;;18.10;99.90;;;;;;5073610;28;20676;-90
2023/07/08 04:41:57;;;;;;;3.77;2.80;;;18.20;99.90;;;;;;5073668;28;20179;-91
2023/07/08 04:44:24;;;;;;;8.00;3.17;;;18.40;99.90;;;;;;5073664;28;20198;-91
2023/07/08 04:46:53;;;;;;;3.53;2.60;;;18.10;99.90;;;;;;5073667;28;20186;-90
2023/07/08 04:49:20;;;;;;;3.90;3.07;;;18.10;99.90;;;;;;5073580;28;20187;-91
2023/07/08 04:51:46;;;;;;;3.83;3.03;;;19.50;99.90;;;;;;5073547;28;20254;-91
2023/07/08 04:54:12;;;;;;;4.90;2.97;;;18.50;99.90;;;;;;5055502;28;20167;-91
2023/07/08 04:56:43;;;;;;;4.53;3.40;;;18.20;99.90;;;;;;5055609;28;20232;-91
2023/07/08 04:59:11;;;;;;;3.67;2.70;;;18.20;99.90;;;;;;5055671;28;20757;-91
2023/07/08 05:01:37;;;;;;;2.63;2.40;;;18.30;99.90;;;;;;5055724;28;20175;-90
2023/07/08 05:04:04;;;;;;;4.03;3.07;;;18.20;99.90;;;;;;5073779;28;20171;-91
2023/07/08 05:06:30;;;;;;;5.07;3.43;;;18.30;99.90;;;;;;5073428;28;20731;-90
2023/07/08 05:08:56;;;;;;;3.77;3.20;;;18.30;99.90;;;;;;5073305;28;20233;-90
2023/07/08 05:11:21;;;;;;;4.63;3.43;;;18.40;99.90;;;;;;5055560;28;20183;-90
2023/07/08 05:13:47;;;;;;;4.97;2.93;;;18.30;99.90;;;;;;5073428;28;20694;-90
2023/07/08 05:16:13;;;;;;;7.30;3.43;;;18.30;99.90;;;;;;5055512;28;20643;-90
2023/07/08 05:18:38;;;;;;;4.13;2.97;;;18.50;99.90;;;;;;5055275;28;20179;-90
2023/07/08 05:21:05;;;;;;;4.50;3.07;;;18.30;99.90;;;;;;5073142;28;20217;-91
2023/07/08 05:23:30;;;;;;;3.33;2.60;;;18.30;99.90;;;;;;5073500;28;20170;-91
2023/07/08 05:26:02;;;;;;;3.93;2.50;;;18.20;99.90;;;;;;5073279;28;20752;-90
2023/07/08 05:28:27;;;;;;;5.40;2.90;;;18.30;99.90;;;;;;5073287;28;20320;-90
2023/07/08 05:30:56;;;;;;;6.03;3.30;;;18.40;99.90;;;;;;5055015;28;20270;-91
2023/07/08 05:33:26;;;;;;;2.83;2.57;;;18.40;99.90;;;;;;5073650;28;20301;-90
2023/07/08 05:35:53;;;;;;;3.77;2.97;;;18.40;99.90;;;;;;5055239;28;20522;-90
2023/07/08 05:38:19;;;;;;;3.47;3.03;;;18.60;99.90;;;;;;5074466;28;20178;-90
2023/07/08 05:40:49;;;;;;;4.30;3.00;;;18.40;99.90;;;;;;5059874;28;20533;-91
2023/07/08 05:43:16;;;;;;;5.00;2.80;;;18.40;99.90;;;;;;5077205;28;20249;-90
2023/07/08 05:45:41;;;;;;;3.77;2.93;;;18.40;99.90;;;;;;5058937;28;20583;-90
2023/07/08 05:48:07;;;;;;;4.03;3.20;;;18.60;99.90;;;;;;5058773;28;20198;-90
2023/07/08 05:50:33;;;;;;;3.77;2.80;;;18.50;99.90;;;;;;5058817;28;20195;-91
2023/07/08 05:52:58;;;;;;;3.43;2.97;;;18.50;99.90;;;;;;5058970;28;20228;-90
2023/07/08 05:55:24;;;;;;;3.70;2.50;;;18.60;99.90;;;;;;5076563;28;20250;-91
2023/07/08 05:57:49;;;;;;;6.53;3.30;;;18.60;99.90;;;;;;5076907;28;20589;-90
2023/07/08 06:00:15;;;;;;;3.37;3.07;;;18.60;99.90;;;;;;5076668;28;20766;-90
2023/07/08 06:02:40;;;;;;;3.70;2.70;;;18.70;99.90;;;;;;5076382;28;20546;-91
2023/07/08 06:05:06;;;;;;;2.97;2.40;;;18.80;99.90;;;;;;5076299;28;20174;-90
2023/07/08 06:07:32;;;;;;;3.00;2.70;;;18.80;99.90;;;;;;5076209;28;20218;-91
2023/07/08 06:09:57;;;;;;;4.07;3.30;;;18.80;99.90;;;;;;5076308;28;20190;-91
2023/07/08 06:12:23;;;;;;;4.20;2.70;;;20.30;99.90;;;;;;5076679;28;20220;-90
2023/07/08 06:14:49;;;;;;;6.77;3.60;;;19.40;99.90;;;;;;5076234;28;20163;-91
2023/07/08 06:17:16;;;;;;;3.03;2.73;;;19.00;99.90;;;;;;5076374;28;20209;-90
2023/07/08 06:19:41;;;;;;;4.97;3.10;;;19.20;99.90;;;;;;5076289;28;20191;-90
2023/07/08 06:22:07;;;;;;;6.17;3.73;;;19.00;99.90;;;;;;5058185;28;20606;-90
2023/07/08 06:24:32;;;;;;;3.97;3.10;;;19.20;99.90;;;;;;5076464;28;20175;-91
2023/07/08 06:26:58;;;;;;;4.03;3.07;;;19.30;60.40;;;;;;5057831;28;20561;-90
2023/07/08 06:29:24;;;;;;;7.27;3.23;;;19.30;18.50;;;;;;5075586;28;20270;-90
2023/07/08 06:31:50;;;;;;;5.23;3.27;;;19.60;1.00;;;;;;5057504;28;20213;-90
2023/07/08 06:34:15;;;;;;;3.73;2.97;;;19.50;1.00;;;;;;5057765;28;20189;-90
2023/07/08 06:36:42;;;;;;;4.20;3.37;;;19.80;1.00;;;;;;5057485;28;20174;-91
2023/07/08 06:39:08;;;;;;;4.70;2.70;;;19.70;1.00;;;;;;5057490;28;20198;-91
2023/07/08 06:41:34;;;;;;;3.90;3.03;;;20.00;1.00;;;;;;5057539;28;20179;-91
2023/07/08 06:44:00;;;;;;;7.13;3.13;;;20.00;1.00;;;;;;5075723;28;20547;-90
2023/07/08 06:46:25;;;;;;;4.70;2.73;;;20.10;1.00;;;;;;5057529;28;20187;-90
2023/07/08 06:48:51;;;;;;;6.70;3.43;;;20.20;1.00;;;;;;5056917;28;20167;-90
2023/07/08 06:51:16;;;;;;;4.97;3.40;;;20.30;1.00;;;;;;5074742;28;20696;-90
2023/07/08 06:53:42;;;;;;;7.50;3.53;;;20.40;1.00;;;;;;5075259;28;20516;-91
2023/07/08 06:56:08;;;;;;;7.17;3.10;;;20.50;1.00;;;;;;5057326;28;20263;-90
2023/07/08 06:58:34;;;;;;;3.80;3.00;;;20.50;1.00;;;;;;5057057;28;20182;-91
2023/07/08 07:00:59;;;;;;;5.97;3.77;;;20.80;1.00;;;;;;5074900;28;20175;-90
2023/07/08 07:03:25;;;;;;;5.93;3.50;;;20.70;1.00;;;;;;5057767;28;20613;-90
2023/07/08 07:05:51;;;;;;;3.77;2.93;;;20.80;1.00;;;;;;5056998;28;20181;-90
2023/07/08 07:08:17;;;;;;;6.70;3.50;;;20.80;1.00;;;;;;5056934;28;20569;-90
2023/07/08 07:10:42;;;;;;;4.27;3.40;;;21.10;1.00;;;;;;5074783;28;20246;-90
2023/07/08 07:13:08;;;;;;;5.60;3.80;;;21.10;1.00;;;;;;5074870;28;20205;-91
2023/07/08 07:15:34;;;;;;;6.13;3.90;;;21.10;1.00;;;;;;5075218;28;20469;-90
2023/07/08 07:18:00;;;;;;;6.90;3.37;;;21.20;1.00;;;;;;5056779;28;20195;-90
2023/07/08 07:20:26;;;;;;;5.63;3.40;;;21.20;1.00;;;;;;5075261;28;20195;-91
2023/07/08 07:22:53;;;;;;;5.63;3.67;;;21.40;1.00;;;;;;5056924;28;20186;-90
2023/07/08 07:25:19;;;;;;;5.17;3.77;;;21.50;1.00;;;;;;5056789;28;20684;-91
2023/07/08 07:27:44;;;;;;;5.53;3.30;;;21.50;1.00;;;;;;5074478;28;20195;-91
2023/07/08 07:30:14;;;;;;;5.67;3.63;;;21.80;1.00;;;;;;5074391;28;20191;-91
2023/07/08 07:32:41;;;;;;;4.87;4.23;;;21.90;1.00;;;;;;5056531;28;20185;-90
2023/07/08 07:35:08;;;;;;;8.47;4.00;;;21.90;99.90;;;;;;5056658;28;20179;-90
2023/07/08 07:37:33;;;;;;;7.97;3.70;;;22.00;99.90;;;;;;5074411;28;20198;-91
2023/07/08 07:39:59;;;;;;;5.80;4.10;;;22.20;99.90;;;;;;5056450;28;20298;-90
2023/07/08 07:42:27;;;;;;;5.73;3.57;;;22.30;99.90;;;;;;5056481;28;20179;-91
2023/07/08 07:44:53;;;;;;;5.27;4.27;;;22.40;99.90;;;;;;5056372;28;20175;-90
2023/07/08 07:47:19;;;;;;;4.63;4.03;;;22.30;99.90;;;;;;5074019;28;20694;-91
2023/07/08 07:49:44;;;;;;;8.23;4.27;;;22.40;99.90;;;;;;5074270;28;20205;-91
2023/07/08 07:52:10;;;;;;;4.47;4.07;;;22.60;69.00;;;;;;5074304;28;20249;-91
2023/07/08 07:54:37;;;;;;;6.10;3.90;;;22.70;35.50;;;;;;5074135;28;20171;-91
2023/07/08 07:57:03;;;;;;;4.93;4.30;;;23.00;15.40;;;;;;5055997;28;20179;-91
2023/07/08 07:59:29;;;;;;;10.93;5.03;;;22.90;65.30;;;;;;5073645;28;20203;-91
2023/07/08 08:01:55;;;;;;;7.90;4.53;;;23.10;99.90;;;;;;5055709;28;20289;-91
2023/07/08 08:04:21;;;;;;;9.73;4.83;;;23.10;1.00;;;;;;5073908;28;20584;-91
2023/07/08 08:06:47;;;;;;;4.93;4.37;;;23.20;1.00;;;;;;5055790;28;20224;-91
2023/07/08 08:09:12;;;;;;;9.17;4.87;;;23.30;1.00;;;;;;5073825;28;20236;-91
2023/07/08 08:11:38;;;;;;;5.87;4.57;;;23.40;1.00;;;;;;5074091;28;20163;-90
2023/07/08 08:14:04;;;;;;;7.30;4.63;;;23.50;1.00;;;;;;5055897;28;20710;-91
2023/07/08 08:16:30;;;;;;;10.27;4.90;;;23.70;1.00;;;;;;5056234;28;20186;-91
2023/07/08 08:18:55;;;;;;;6.10;4.90;;;23.80;1.00;;;;;;5055486;28;20253;-91
2023/07/08 08:21:21;;;;;;;7.00;5.10;;;23.80;1.00;;;;;;5055624;28;20182;-91
2023/07/08 08:23:47;;;;;;;6.53;4.70;;;23.90;1.00;;;;;;5055688;28;20170;-91
2023/07/08 08:26:13;;;;;;;6.30;4.67;;;24.00;99.90;;;;;;5055480;28;20590;-91
2023/07/08 08:28:39;;;;;;;7.87;5.07;;;24.00;1.00;;;;;;5055159;28;20218;-90
2023/07/08 08:31:04;;;;;;;8.17;5.03;;;24.20;1.00;;;;;;5055420;28;20179;-91
2023/07/08 08:33:30;;;;;;;7.47;4.80;;;24.20;99.90;;;;;;5055497;28;20182;-91
2023/07/08 08:35:55;;;;;;;5.77;4.70;;;24.40;99.90;;;;;;5055325;28;20175;-91
2023/07/08 08:38:21;;;;;;;5.17;4.60;;;24.20;99.90;;;;;;5073231;28;20179;-90
2023/07/08 08:40:47;;;;;;;9.37;4.97;;;24.30;99.90;;;;;;5073003;28;20200;-91
2023/07/08 08:43:22;;;;;;;7.20;4.57;;;24.40;99.90;;;;;;5054872;28;20179;-91
2023/07/08 08:46:09;;;;;;;6.47;4.70;;;24.50;95.00;;;;;;5073088;28;20315;-91
2023/07/08 08:48:43;;;;;;;12.90;4.90;;;24.60;8.60;;;;;;5054802;28;20699;-91
2023/07/08 08:51:14;;;;;;;5.40;4.40;;;24.70;1.00;;;;;;5055204;28;20202;-91
2023/07/08 08:53:40;;;;;;;8.30;4.25;;;24.70;99.90;;;;;;5054935;28;20171;-91
2023/07/08 08:56:17;;;;;;;15.20;4.67;;;24.90;99.90;;;;;;5055076;28;20175;-91
2023/07/08 08:59:10;;;;;;;9.20;4.87;;;25.20;1.00;;;;;;5072866;28;20629;-91
2023/07/08 09:01:36;;;;;;;5.90;4.33;;;25.40;1.00;;;;;;5054938;28;20193;-91
2023/07/08 09:04:27;;;;;;;5.85;4.32;;;25.50;74.70;;;;;;5054877;28;20174;-91
2023/07/08 09:06:56;;;;;;;6.93;4.55;;;25.60;99.90;;;;;;5055248;28;20586;-91
2023/07/08 09:09:32;;;;;;;6.15;4.40;;;25.70;95.70;;;;;;5054592;28;20202;-91
2023/07/08 09:12:04;;;;;;;6.22;4.40;;;25.70;91.00;;;;;;5054771;28;20167;-91
2023/07/08 09:14:33;;;;;;;6.63;4.68;;;25.90;99.90;;;;;;5076276;28;20275;-91
2023/07/08 09:17:27;;;;;;;8.43;4.10;;;25.90;99.90;;;;;;5058566;28;20212;-91
2023/07/08 09:20:20;;;;;;;5.57;4.50;;;26.00;1.00;;;;;;5076718;28;20210;-91
2023/07/08 09:23:07;;;;;;;6.00;4.32;;;26.10;1.00;;;;;;5076714;28;20175;-91
2023/07/08 09:25:39;;;;;;;6.05;4.43;;;26.20;1.00;;;;;;5076795;28;20169;-91
2023/07/08 09:28:04;;;;;;;5.38;4.53;;;26.30;1.00;;;;;;5076613;28;20182;-91
2023/07/08 09:30:30;;;;;;;7.45;4.78;;;26.50;1.00;;;;;;5076603;28;20197;-91
2023/07/08 09:32:57;;;;;;;5.63;4.22;;;26.60;1.00;;;;;;5058511;28;20224;-91
2023/07/08 09:35:28;;;;;;;5.85;4.43;;;26.70;99.90;;;;;;5058478;28;20179;-91
2023/07/08 09:37:55;;;;;;;9.88;4.00;;;26.80;1.00;;;;;;5058540;28;20167;-91
2023/07/08 09:40:31;;;;;;;6.22;4.00;;;26.90;1.00;;;;;;5058416;28;20221;-91
2023/07/08 09:43:17;;;;;;;4.80;4.22;;;27.00;99.90;;;;;;5058705;28;20217;-91
2023/07/08 09:45:46;;;;;;;6.35;3.85;;;27.00;1.00;;;;;;5041395;28;20206;-91
2023/07/08 09:48:35;;;;;;;4.93;3.72;;;27.30;1.00;;;;;;5058380;28;20199;-91
2023/07/08 09:51:01;;;;;;;4.63;4.00;;;27.30;1.00;;;;;;5058309;28;20171;-91
2023/07/08 09:53:27;;;;;;;5.32;4.15;;;27.40;1.00;;;;;;5075990;28;20220;-91
2023/07/08 09:55:57;;;;;;;4.63;3.80;;;27.50;1.00;;;;;;5058174;28;20305;-91
2023/07/08 09:58:37;;;;;;;5.43;3.63;;;27.60;1.00;;;;;;5058093;28;20645;-91
2023/07/08 10:01:22;;;;;;;6.88;4.28;;;27.70;1.00;;;;;;5058278;28;20526;-91
2023/07/08 10:03:48;;;;;;;7.15;3.85;;;27.70;1.00;;;;;;5075970;28;20163;-91
2023/07/08 10:06:35;;;;;;;5.45;3.95;;;27.70;1.00;;;;;;5076054;28;20181;-91
2023/07/08 10:09:04;;;;;;;7.45;3.90;;;27.90;99.90;;;;;;5057896;28;20226;-91
2023/07/08 10:11:35;;;;;;;5.95;4.22;;;27.90;1.00;;;;;;5057995;28;20175;-91
2023/07/08 10:14:11;;;;;;;8.13;3.40;;;28.10;1.00;;;;;;5075877;28;20651;-91
2023/07/08 10:16:37;;;;;;;7.10;4.07;;;28.10;1.00;;;;;;5075652;28;20208;-91
2023/07/08 10:19:16;;;;;;;8.32;3.88;;;28.20;99.90;;;;;;5057921;28;20554;-91
2023/07/08 10:21:51;;;;;;;6.15;4.05;;;28.10;99.90;;;;;;5058489;28;20238;-91
2023/07/08 10:24:50;;;;;;;5.55;4.30;;;28.20;1.00;;;;;;5057881;28;20205;-91
2023/07/08 10:27:39;;;;;;;5.00;4.00;;;28.30;99.90;;;;;;5075595;28;20273;-91
2023/07/08 10:30:25;;;;;;;5.40;3.75;;;28.40;1.00;;;;;;5026892;28;20299;-91
2023/07/08 10:33:00;;;;;;;5.25;4.00;;;28.50;1.00;;;;;;5057512;28;20243;-91
2023/07/08 10:35:30;;;;;;;6.40;3.83;;;28.60;1.00;;;;;;5057638;28;20166;-91
2023/07/08 10:38:01;;;;;;;5.88;3.63;;;28.70;99.90;;;;;;5057522;28;20262;-91
2023/07/08 10:40:39;;;;;;;5.40;4.05;;;28.70;1.00;;;;;;5057416;28;20203;-91
2023/07/08 10:43:27;;;;;;;5.25;3.58;;;28.90;1.00;;;;;;5057193;28;20178;-91
2023/07/08 10:46:20;;;;;;;8.07;3.42;;;28.90;1.00;;;;;;5057458;28;20174;-91
2023/07/08 10:48:54;;;;;;;6.88;3.67;;;29.00;1.00;;;;;;5075142;28;20245;-91
2023/07/08 10:51:41;;;;;;;7.22;3.65;;;29.10;99.90;;;;;;5075167;28;20629;-91
2023/07/08 10:54:57;;;;;;;7.65;3.33;;;29.10;99.90;;;;;;5075080;28;20162;-91
2023/07/08 10:57:45;;;;;;;5.68;3.67;;;29.20;99.90;;;;;;5002977;28;20178;-91
2023/07/08 11:00:27;;;;;;;7.97;3.58;;;29.30;1.00;;;;;;5057086;28;20291;-92
2023/07/08 11:03:28;;;;;;;5.00;3.80;;;29.40;99.90;;;;;;5075002;28;20257;-91
2023/07/08 11:06:35;;;;;;;4.60;3.42;;;29.50;99.90;;;;;;5057001;28;20616;-92
2023/07/08 11:09:05;;;;;;;6.70;4.03;;;29.60;99.90;;;;;;5013269;28;20217;-91
2023/07/08 11:11:33;;;;;;;7.70;3.78;;;29.70;99.90;;;;;;5056972;28;20179;-91
2023/07/08 11:14:13;;;;;;;7.25;3.95;;;29.60;99.90;;;;;;5074597;28;20633;-91
2023/07/08 11:17:01;;;;;;;5.75;3.42;;;29.80;99.90;;;;;;5056665;28;20179;-91
2023/07/08 11:19:36;;;;;;;5.53;3.65;;;29.80;99.90;;;;;;5042433;28;20727;-91
2023/07/08 11:22:08;;;;;;;6.47;3.60;;;29.90;99.90;;;;;;5056576;28;20610;-91
2023/07/08 11:24:44;;;;;;;6.20;3.63;;;30.00;99.90;;;;;;5074513;28;20155;-91
2023/07/08 11:27:27;;;;;;;6.00;4.00;;;30.00;99.90;;;;;;5056450;28;20198;-91
2023/07/08 11:30:10;;;;;;;8.35;4.00;;;30.10;40.10;;;;;;5056548;28;20195;-91
2023/07/08 11:32:37;;;;;;;5.25;3.58;;;30.10;1.00;;;;;;5056450;28;20175;-91
2023/07/08 11:35:06;;;;;;;5.65;3.67;;;30.30;1.00;;;;;;5074129;28;20186;-91
2023/07/08 11:37:33;;;;;;;4.70;3.13;;;30.30;1.00;;;;;;5056049;28;20175;-92
2023/07/08 11:40:07;;;;;;;5.53;3.80;;;30.40;29.10;;;;;;5056530;28;20195;-92
2023/07/08 11:42:43;;;;;;;5.80;3.33;;;30.40;1.00;;;;;;5056305;28;20174;-92
2023/07/08 11:45:18;;;;;;;7.50;3.60;;;30.50;1.00;;;;;;5056164;28;20236;-91
2023/07/08 11:47:48;;;;;;;7.90;3.50;;;30.50;1.00;;;;;;5056478;28;20217;-92
2023/07/08 11:50:46;;;;;;;5.72;3.17;;;30.60;1.00;;;;;;5056191;28;20191;-91
2023/07/08 11:53:30;;;;;;;5.65;3.75;;;30.70;99.90;;;;;;5052962;28;20179;-92
2023/07/08 11:55:57;;;;;;;5.25;3.55;;;30.80;1.00;;;;;;5056445;28;20531;-92
2023/07/08 11:58:49;;;;;;;6.28;3.58;;;30.80;1.00;;;;;;5074129;28;20199;-92
2023/07/08 12:01:17;;;;;;;6.90;3.50;;;30.90;1.00;;;;;;5056070;28;20187;-91
2023/07/08 12:03:58;;;;;;;4.95;3.38;;;30.90;1.00;;;;;;5074031;28;20182;-92
2023/07/08 12:06:27;;;;;;;6.47;3.25;;;31.00;99.90;;;;;;5073809;28;20164;-92
2023/07/08 12:08:58;;;;;;;5.72;3.53;;;31.00;99.90;;;;;;5055865;28;20174;-91
2023/07/08 12:11:28;;;;;;;7.65;3.55;;;31.00;1.00;;;;;;5056036;28;20166;-92
2023/07/08 12:13:57;;;;;;;4.78;3.40;;;31.20;1.00;;;;;;5073711;28;20166;-92
2023/07/08 12:16:22;;;;;;;5.72;3.58;;;31.20;1.00;;;;;;5073607;28;20167;-91
2023/07/08 12:18:49;;;;;;;6.28;3.55;;;31.20;1.00;;;;;;5074260;28;20309;-91
2023/07/08 12:21:15;;;;;;;6.13;3.83;;;31.20;99.90;;;;;;5073671;28;20175;-92
2023/07/08 12:23:46;;;;;;;7.40;3.63;;;31.20;99.90;;;;;;5073669;28;20175;-91
2023/07/08 12:26:12;;;;;;;6.40;3.75;;;31.30;99.90;;;;;;5073632;28;20663;-92
2023/07/08 12:28:39;;;;;;;3.80;3.22;;;31.30;99.90;;;;;;5073919;28;20245;-92
2023/07/08 12:31:17;;;;;;;6.53;3.40;;;31.40;99.90;;;;;;5073808;28;20270;-91
2023/07/08 12:33:44;;;;;;;5.20;3.22;;;31.50;99.90;;;;;;5074177;28;20155;-92
2023/07/08 12:36:13;;;;;;;8.15;3.80;;;31.60;99.90;;;;;;5073909;28;20163;-91
2023/07/08 12:38:46;;;;;;;4.53;3.28;;;31.60;99.90;;;;;;5073768;28;20242;-92
2023/07/08 12:41:16;;;;;;;7.32;4.15;;;31.60;99.90;;;;;;5073255;28;20640;-91
2023/07/08 12:43:42;;;;;;;6.00;3.65;;;31.60;99.90;;;;;;5073755;28;20171;-92
2023/07/08 12:46:11;;;;;;;4.70;3.15;;;31.70;99.90;;;;;;5073186;28;20206;-92
2023/07/08 12:48:39;;;;;;;5.70;3.28;;;31.80;99.90;;;;;;5072512;28;20282;-92
2023/07/08 12:51:06;;;;;;;8.68;3.65;;;31.90;99.90;;;;;;5073768;28;20159;-92
2023/07/08 12:53:33;;;;;;;5.15;3.65;;;32.10;99.90;;;;;;5073530;28;20249;-92
2023/07/08 12:56:00;;;;;;;7.72;3.78;;;32.00;99.90;;;;;;5055834;28;20565;-92
2023/07/08 12:58:29;;;;;;;6.38;3.88;;;32.10;99.90;;;;;;5055442;28;20171;-92
2023/07/08 13:01:00;;;;;;;5.18;3.55;;;32.20;99.90;;;;;;5055633;28;20702;-92
2023/07/08 13:03:29;;;;;;;5.05;3.33;;;32.30;99.90;;;;;;5055446;28;20182;-92
2023/07/08 13:05:56;;;;;;;7.85;3.95;;;32.30;99.90;;;;;;5055412;28;20210;-91